KBIJ

Details ICAO KBIJ
Name EARLY CO
Region United States
Timezone America/New_York (UTC-4.0)
Plans Departing 0
Arriving 2
Stats Elevation 214 ft / 65 m (AMSL)
Location 31.397510° -84.894799°
Runways 1
Magnetic Variation 4.517° W
Sunrise 2018-05-22 10:40:53 UTC / 2018-05-22 06:40:53 Local
Sunset 2018-05-23 00:34:30 UTC / 2018-05-22 20:34:30 Local
Advertisement - Login to hide

Runways

ID Width Length Bearing (true) Bearing (mag) Surface Threshold Offset Overrun Length
05 100 ft / 30 m 5,502 ft / 1,677 m 49.41° 53.93° Asphalt 0 ft / 0 m 200 ft / 61 m
23 100 ft / 30 m 5,502 ft / 1,677 m 229.42° 233.94° Asphalt 0 ft / 0 m 200 ft / 61 m

Approach Navaids

Runway Type Ident Frequency Range Bearing (true) Bearing (mag) Slope Elevation
23 Localiser IBIJ 110.35 MHz 18 nm / 33 km 229.41° 233.92° - 208 ft / 63 m (AMSL)

Map

Weather


0- 5 10 15 20 25 30 35+ Temperature / ° C

Clouds and Precipitation
Forecast for 2018-05-22 12:00 UTC. Updated 3 hours ago

Ground ~20,000 ft ~40,000 ft Winds

METAR

KBIJ 221355Z AUTO 00000KT 10SM OVC008 23/21 A3009 RMK AO2 LTG DSNT SW

TAF

Not found

Frequencies

Recorded 118.47 MHz AWOS 3
Approach 125.40 MHz CAIRNS APP/DEP
Unicom 122.90 MHz CTAF
Warning: Do not use this data for real-world aviation or navigation. No guarantee of current accuracy is given.